sensor_id;sensor_type;location;lat;lon;timestamp;pressure;altitude;pressure_sealevel;temperature;humidity
64711;BME280;51139;45.626;6.850;2023-02-18T00:00:51;82991.81;;;2.24;55.66
64711;BME280;51139;45.626;6.850;2023-02-18T00:03:17;82992.97;;;2.29;55.98
64711;BME280;51139;45.626;6.850;2023-02-18T00:05:42;82998.00;;;2.21;55.76
64711;BME280;51139;45.626;6.850;2023-02-18T00:08:07;82988.25;;;2.27;55.56
64711;BME280;51139;45.626;6.850;2023-02-18T00:10:33;82985.91;;;2.12;55.86
64711;BME280;51139;45.626;6.850;2023-02-18T00:12:58;82989.44;;;2.26;55.24
64711;BME280;51139;45.626;6.850;2023-02-18T00:15:25;82988.03;;;2.25;55.33
64711;BME280;51139;45.626;6.850;2023-02-18T00:17:51;82982.34;;;1.98;56.16
64711;BME280;51139;45.626;6.850;2023-02-18T00:20:16;82980.69;;;1.84;57.58
64711;BME280;51139;45.626;6.850;2023-02-18T00:22:41;82985.41;;;2.19;56.50
64711;BME280;51139;45.626;6.850;2023-02-18T00:25:07;82989.22;;;2.13;55.92
64711;BME280;51139;45.626;6.850;2023-02-18T00:27:32;82985.19;;;2.00;57.25
64711;BME280;51139;45.626;6.850;2023-02-18T00:29:58;82982.84;;;1.97;56.53
64711;BME280;51139;45.626;6.850;2023-02-18T00:32:23;82977.38;;;1.95;56.73
64711;BME280;51139;45.626;6.850;2023-02-18T00:34:49;82974.53;;;1.81;57.29
64711;BME280;51139;45.626;6.850;2023-02-18T00:37:14;82975.50;;;1.78;57.39
64711;BME280;51139;45.626;6.850;2023-02-18T00:39:39;82974.53;;;1.70;57.97
64711;BME280;51139;45.626;6.850;2023-02-18T00:42:05;82970.72;;;1.71;57.91
64711;BME280;51139;45.626;6.850;2023-02-18T00:44:30;82973.09;;;1.69;57.89
64711;BME280;51139;45.626;6.850;2023-02-18T00:46:56;82969.56;;;1.83;57.53
64711;BME280;51139;45.626;6.850;2023-02-18T00:49:21;82974.31;;;1.73;57.65
64711;BME280;51139;45.626;6.850;2023-02-18T00:51:46;82974.06;;;1.77;57.88
64711;BME280;51139;45.626;6.850;2023-02-18T00:54:12;82971.69;;;1.68;58.38
64711;BME280;51139;45.626;6.850;2023-02-18T00:56:37;82975.97;;;1.77;58.10
64711;BME280;51139;45.626;6.850;2023-02-18T00:59:03;82975.47;;;1.72;57.57
64711;BME280;51139;45.626;6.850;2023-02-18T01:01:28;82971.69;;;1.68;57.81
64711;BME280;51139;45.626;6.850;2023-02-18T01:03:54;82965.03;;;1.78;58.51
64711;BME280;51139;45.626;6.850;2023-02-18T01:06:19;82966.69;;;1.75;58.02
64711;BME280;51139;45.626;6.850;2023-02-18T01:08:46;82966.94;;;1.72;58.26
64711;BME280;51139;45.626;6.850;2023-02-18T01:11:12;82964.56;;;1.68;58.31
64711;BME280;51139;45.626;6.850;2023-02-18T01:13:39;82966.47;;;1.62;59.54
64711;BME280;51139;45.626;6.850;2023-02-18T01:16:05;82951.75;;;1.70;58.53
64711;BME280;51139;45.626;6.850;2023-02-18T01:18:30;82960.28;;;1.65;58.97
64711;BME280;51139;45.626;6.850;2023-02-18T01:20:56;82951.97;;;1.72;59.05
64711;BME280;51139;45.626;6.850;2023-02-18T01:23:22;82944.16;;;1.78;58.42
64711;BME280;51139;45.626;6.850;2023-02-18T01:25:47;82942.00;;;1.71;58.46
64711;BME280;51139;45.626;6.850;2023-02-18T01:28:14;82935.84;;;1.68;58.42
64711;BME280;51139;45.626;6.850;2023-02-18T01:30:40;82934.44;;;1.56;59.49
64711;BME280;51139;45.626;6.850;2023-02-18T01:33:05;82933.94;;;1.63;59.47
64711;BME280;51139;45.626;6.850;2023-02-18T01:35:31;82931.31;;;1.74;58.60
64711;BME280;51139;45.626;6.850;2023-02-18T01:37:57;82933.94;;;1.63;58.61
64711;BME280;51139;45.626;6.850;2023-02-18T01:40:25;82931.56;;;1.59;59.67
64711;BME280;51139;45.626;6.850;2023-02-18T01:42:51;82933.47;;;1.48;59.24
64711;BME280;51139;45.626;6.850;2023-02-18T01:48:08;82929.88;;;1.73;58.43
64711;BME280;51139;45.626;6.850;2023-02-18T01:50:41;82933.47;;;1.59;59.02
64711;BME280;51139;45.626;6.850;2023-02-18T01:53:07;82927.78;;;1.55;59.77
64711;BME280;51139;45.626;6.850;2023-02-18T01:55:34;82927.28;;;1.56;60.11
64711;BME280;51139;45.626;6.850;2023-02-18T01:58:01;82929.69;;;1.43;60.13
64711;BME280;51139;45.626;6.850;2023-02-18T02:00:27;82925.63;;;1.42;60.23
64711;BME280;51139;45.626;6.850;2023-02-18T02:02:53;82928.72;;;1.35;60.38
64711;BME280;51139;45.626;6.850;2023-02-18T02:05:20;82924.47;;;1.37;61.12
64711;BME280;51139;45.626;6.850;2023-02-18T02:07:48;82928.00;;;1.40;59.61
64711;BME280;51139;45.626;6.850;2023-02-18T02:10:15;82928.50;;;1.38;60.30
64711;BME280;51139;45.626;6.850;2023-02-18T02:12:51;82929.69;;;1.31;60.35
64711;BME280;51139;45.626;6.850;2023-02-18T02:15:45;82929.22;;;1.33;60.89
64711;BME280;51139;45.626;6.850;2023-02-18T02:26:30;82914.03;;;1.37;60.66
64711;BME280;51139;45.626;6.850;2023-02-18T02:37:52;82906.63;;;1.58;59.33
64711;BME280;51139;45.626;6.850;2023-02-18T02:40:23;82905.94;;;1.52;60.34
64711;BME280;51139;45.626;6.850;2023-02-18T02:51:21;82894.78;;;1.29;62.78
64711;BME280;51139;45.626;6.850;2023-02-18T02:53:48;82891.22;;;1.38;62.55
64711;BME280;51139;45.626;6.850;2023-02-18T02:56:16;82894.09;;;1.34;62.20
64711;BME280;51139;45.626;6.850;2023-02-18T02:58:44;82898.38;;;1.37;62.14
64711;BME280;51139;45.626;6.850;2023-02-18T03:01:28;82888.16;;;1.39;61.97
64711;BME280;51139;45.626;6.850;2023-02-18T03:07:10;82881.97;;;1.25;62.86
64711;BME280;51139;45.626;6.850;2023-02-18T03:09:32;82884.34;;;1.29;62.77
64711;BME280;51139;45.626;6.850;2023-02-18T03:12:06;82879.59;;;1.27;62.88
64711;BME280;51139;45.626;6.850;2023-02-18T03:15:06;82881.28;;;1.30;62.37
64711;BME280;51139;45.626;6.850;2023-02-18T03:17:54;82876.28;;;1.27;62.69
64711;BME280;51139;45.626;6.850;2023-02-18T03:20:25;82874.88;;;1.20;62.89
64711;BME280;51139;45.626;6.850;2023-02-18T03:22:53;82881.97;;;1.31;62.47
64711;BME280;51139;45.626;6.850;2023-02-18T03:25:20;82875.81;;;1.28;62.68
64711;BME280;51139;45.626;6.850;2023-02-18T03:27:51;82879.38;;;1.25;62.96
64711;BME280;51139;45.626;6.850;2023-02-18T03:32:44;82885.28;;;1.26;62.89
64711;BME280;51139;45.626;6.850;2023-02-18T03:35:14;82881.97;;;1.08;63.71
64711;BME280;51139;45.626;6.850;2023-02-18T03:37:53;82882.00;;;1.14;63.41
64711;BME280;51139;45.626;6.850;2023-02-18T03:40:28;82881.75;;;1.17;63.14
64711;BME280;51139;45.626;6.850;2023-02-18T03:42:58;82877.00;;;1.33;62.69
64711;BME280;51139;45.626;6.850;2023-02-18T03:45:24;82871.78;;;1.22;62.61
64711;BME280;51139;45.626;6.850;2023-02-18T03:47:51;82872.72;;;1.19;62.95
64711;BME280;51139;45.626;6.850;2023-02-18T03:50:16;82884.34;;;1.40;63.05
64711;BME280;51139;45.626;6.850;2023-02-18T03:52:42;82875.81;;;1.34;62.50
64711;BME280;51139;45.626;6.850;2023-02-18T03:55:08;82873.91;;;1.23;62.70
64711;BME280;51139;45.626;6.850;2023-02-18T03:57:33;82872.00;;;1.29;62.31
64711;BME280;51139;45.626;6.850;2023-02-18T03:59:59;82874.84;;;1.43;61.90
64711;BME280;51139;45.626;6.850;2023-02-18T04:02:24;82874.16;;;1.37;61.46
64711;BME280;51139;45.626;6.850;2023-02-18T04:04:50;82872.00;;;1.41;61.65
64711;BME280;51139;45.626;6.850;2023-02-18T04:07:15;82875.56;;;1.43;60.92
64711;BME280;51139;45.626;6.850;2023-02-18T04:09:41;82873.44;;;1.36;61.27
64711;BME280;51139;45.626;6.850;2023-02-18T04:12:06;82878.91;;;1.38;60.49
64711;BME280;51139;45.626;6.850;2023-02-18T04:14:32;82878.91;;;1.33;60.21
64711;BME280;51139;45.626;6.850;2023-02-18T04:16:57;82881.50;;;1.44;60.44
64711;BME280;51139;45.626;6.850;2023-02-18T04:19:22;82872.22;;;1.43;60.07
64711;BME280;51139;45.626;6.850;2023-02-18T04:21:48;82868.22;;;1.30;60.05
64711;BME280;51139;45.626;6.850;2023-02-18T04:24:13;82879.13;;;1.52;59.81
64711;BME280;51139;45.626;6.850;2023-02-18T04:26:39;82879.84;;;1.47;59.18
64711;BME280;51139;45.626;6.850;2023-02-18T04:29:04;82878.84;;;1.61;58.69
64711;BME280;51139;45.626;6.850;2023-02-18T04:31:29;82877.41;;;1.71;57.54
64711;BME280;51139;45.626;6.850;2023-02-18T04:33:55;82883.84;;;1.59;57.71
64711;BME280;51139;45.626;6.850;2023-02-18T04:36:20;82885.03;;;1.69;57.94
64711;BME280;51139;45.626;6.850;2023-02-18T04:38:46;82886.91;;;1.74;57.73
64711;BME280;51139;45.626;6.850;2023-02-18T04:41:11;82888.84;;;1.57;57.71
64711;BME280;51139;45.626;6.850;2023-02-18T04:43:37;82893.81;;;1.49;58.22
64711;BME280;51139;45.626;6.850;2023-02-18T04:46:03;82885.53;;;1.45;59.02
64711;BME280;51139;45.626;6.850;2023-02-18T04:48:29;82885.28;;;1.54;58.65
64711;BME280;51139;45.626;6.850;2023-02-18T04:50:55;82888.88;;;1.34;59.23
64711;BME280;51139;45.626;6.850;2023-02-18T04:53:20;82885.31;;;1.37;58.84
64711;BME280;51139;45.626;6.850;2023-02-18T04:55:52;82889.81;;;1.31;59.22
64711;BME280;51139;45.626;6.850;2023-02-18T04:58:19;82890.75;;;1.28;59.38
64711;BME280;51139;45.626;6.850;2023-02-18T05:00:45;82887.66;;;1.24;59.32
64711;BME280;51139;45.626;6.850;2023-02-18T05:03:13;82888.16;;;1.16;60.50
64711;BME280;51139;45.626;6.850;2023-02-18T05:05:39;82889.34;;;1.15;60.30
64711;BME280;51139;45.626;6.850;2023-02-18T05:08:06;82885.06;;;1.18;59.92
64711;BME280;51139;45.626;6.850;2023-02-18T05:10:33;82882.47;;;1.18;59.87
64711;BME280;51139;45.626;6.850;2023-02-18T05:12:58;82878.44;;;1.34;59.42
64711;BME280;51139;45.626;6.850;2023-02-18T05:15:24;82874.38;;;1.44;58.50
64711;BME280;51139;45.626;6.850;2023-02-18T05:17:49;82874.16;;;1.37;58.77
64711;BME280;51139;45.626;6.850;2023-02-18T05:20:14;82872.94;;;1.32;59.36
64711;BME280;51139;45.626;6.850;2023-02-18T05:22:40;82869.66;;;1.37;58.90
64711;BME280;51139;45.626;6.850;2023-02-18T05:25:06;82871.06;;;1.38;59.09
64711;BME280;51139;45.626;6.850;2023-02-18T05:27:32;82877.25;;;1.35;59.55
64711;BME280;51139;45.626;6.850;2023-02-18T05:29:57;82870.34;;;1.09;60.51
64711;BME280;51139;45.626;6.850;2023-02-18T05:32:23;82874.63;;;1.18;60.47
64711;BME280;51139;45.626;6.850;2023-02-18T05:34:48;82869.41;;;1.01;60.80
64711;BME280;51139;45.626;6.850;2023-02-18T05:37:13;82865.63;;;1.13;60.77
64711;BME280;51139;45.626;6.850;2023-02-18T05:39:40;82867.28;;;1.05;60.82
64711;BME280;51139;45.626;6.850;2023-02-18T05:42:05;82869.19;;;1.16;60.51
64711;BME280;51139;45.626;6.850;2023-02-18T05:44:31;82860.63;;;1.04;61.92
64711;BME280;51139;45.626;6.850;2023-02-18T05:47:01;82870.13;;;1.07;62.12
64711;BME280;51139;45.626;6.850;2023-02-18T05:49:28;82866.78;;;1.29;61.26
64711;BME280;51139;45.626;6.850;2023-02-18T05:51:54;82858.50;;;1.20;61.34
64711;BME280;51139;45.626;6.850;2023-02-18T05:54:20;82857.81;;;1.08;61.55
64711;BME280;51139;45.626;6.850;2023-02-18T05:56:45;82860.41;;;1.13;61.31
64711;BME280;51139;45.626;6.850;2023-02-18T05:59:10;82858.75;;;1.05;62.15
64711;BME280;51139;45.626;6.850;2023-02-18T06:01:36;82855.19;;;1.02;62.43
64711;BME280;51139;45.626;6.850;2023-02-18T06:04:01;82863.25;;;1.04;62.63
64711;BME280;51139;45.626;6.850;2023-02-18T06:06:27;82861.81;;;1.03;62.98
64711;BME280;51139;45.626;6.850;2023-02-18T06:08:52;82855.66;;;1.00;62.64
64711;BME280;51139;45.626;6.850;2023-02-18T06:11:18;82855.66;;;0.95;63.19
64711;BME280;51139;45.626;6.850;2023-02-18T06:13:43;82860.88;;;1.06;62.87
64711;BME280;51139;45.626;6.850;2023-02-18T06:16:09;82852.59;;;0.96;63.11
64711;BME280;51139;45.626;6.850;2023-02-18T06:18:34;82861.38;;;0.93;63.24
64711;BME280;51139;45.626;6.850;2023-02-18T06:21:00;82859.22;;;1.03;62.81
64711;BME280;51139;45.626;6.850;2023-02-18T06:23:25;82852.81;;;0.93;63.49
64711;BME280;51139;45.626;6.850;2023-02-18T06:25:50;82853.75;;;0.90;64.43
64711;BME280;51139;45.626;6.850;2023-02-18T06:28:16;82859.94;;;0.92;63.79
64711;BME280;51139;45.626;6.850;2023-02-18T06:30:42;82855.91;;;0.91;64.38
64711;BME280;51139;45.626;6.850;2023-02-18T06:33:08;82859.69;;;0.96;64.96
64711;BME280;51139;45.626;6.850;2023-02-18T06:35:33;82854.94;;;1.11;64.09
64711;BME280;51139;45.626;6.850;2023-02-18T06:37:59;82854.47;;;1.13;64.04
64711;BME280;51139;45.626;6.850;2023-02-18T06:40:24;82858.97;;;1.12;64.31
64711;BME280;51139;45.626;6.850;2023-02-18T06:42:50;82859.69;;;1.13;64.58
64711;BME280;51139;45.626;6.850;2023-02-18T06:45:15;82858.28;;;1.12;64.38
64711;BME280;51139;45.626;6.850;2023-02-18T06:47:41;82855.41;;;1.21;63.59
64711;BME280;51139;45.626;6.850;2023-02-18T06:50:06;82861.56;;;1.29;63.53
64711;BME280;51139;45.626;6.850;2023-02-18T06:52:32;82863.47;;;1.23;63.79
64711;BME280;51139;45.626;6.850;2023-02-18T06:54:59;82868.69;;;1.23;64.56
64711;BME280;51139;45.626;6.850;2023-02-18T06:57:24;82858.25;;;1.29;63.67
64711;BME280;51139;45.626;6.850;2023-02-18T06:59:49;82859.19;;;1.37;63.27
64711;BME280;51139;45.626;6.850;2023-02-18T07:02:15;82855.88;;;1.37;62.94
64711;BME280;51139;45.626;6.850;2023-02-18T07:04:40;82859.44;;;1.34;63.59
64711;BME280;51139;45.626;6.850;2023-02-18T07:07:06;82859.19;;;1.31;63.35
64711;BME280;51139;45.626;6.850;2023-02-18T07:09:31;82862.78;;;1.34;63.64
64711;BME280;51139;45.626;6.850;2023-02-18T07:11:56;82867.75;;;1.43;63.69
64711;BME280;51139;45.626;6.850;2023-02-18T07:14:23;82867.94;;;1.57;62.58
64711;BME280;51139;45.626;6.850;2023-02-18T07:16:49;82861.50;;;1.64;61.68
64711;BME280;51139;45.626;6.850;2023-02-18T07:19:15;82855.31;;;1.67;61.81
64711;BME280;51139;45.626;6.850;2023-02-18T07:21:41;82863.16;;;1.72;61.80
64711;BME280;51139;45.626;6.850;2023-02-18T07:24:07;82858.88;;;1.81;62.13
64711;BME280;51139;45.626;6.850;2023-02-18T07:26:32;82864.00;;;2.03;61.40
64711;BME280;51139;45.626;6.850;2023-02-18T07:28:58;82866.50;;;2.38;59.39
64711;BME280;51139;45.626;6.850;2023-02-18T07:31:23;82861.44;;;2.51;59.06
64711;BME280;51139;45.626;6.850;2023-02-18T07:33:49;82866.81;;;2.70;58.30
64711;BME280;51139;45.626;6.850;2023-02-18T07:36:14;82869.53;;;2.95;56.91
64711;BME280;51139;45.626;6.850;2023-02-18T07:38:39;82864.34;;;3.20;55.54
64711;BME280;51139;45.626;6.850;2023-02-18T07:41:05;82865.00;;;3.32;54.85
64711;BME280;51139;45.626;6.850;2023-02-18T07:43:30;82863.69;;;3.44;55.43
64711;BME280;51139;45.626;6.850;2023-02-18T07:45:55;82865.66;;;3.69;54.22
64711;BME280;51139;45.626;6.850;2023-02-18T07:48:21;82864.50;;;3.89;53.73
64711;BME280;51139;45.626;6.850;2023-02-18T07:50:46;82862.13;;;4.54;52.14
64711;BME280;51139;45.626;6.850;2023-02-18T07:53:13;82864.13;;;5.05;51.52
64711;BME280;51139;45.626;6.850;2023-02-18T07:55:39;82862.75;;;5.18;49.72
64711;BME280;51139;45.626;6.850;2023-02-18T07:58:17;82871.78;;;4.84;50.42
64711;BME280;51139;45.626;6.850;2023-02-18T08:00:43;82863.22;;;5.03;50.00
64711;BME280;51139;45.626;6.850;2023-02-18T08:03:09;82862.97;;;5.52;49.60
64711;BME280;51139;45.626;6.850;2023-02-18T08:05:35;82868.72;;;6.56;46.47
64711;BME280;51139;45.626;6.850;2023-02-18T08:08:00;82864.78;;;7.46;42.80
64711;BME280;51139;45.626;6.850;2023-02-18T08:10:25;82865.19;;;8.14;41.48
64711;BME280;51139;45.626;6.850;2023-02-18T08:12:51;82865.63;;;8.76;39.92
64711;BME280;51139;45.626;6.850;2023-02-18T08:15:16;82854.88;;;9.11;37.92
64711;BME280;51139;45.626;6.850;2023-02-18T08:17:42;82861.81;;;8.06;41.16
64711;BME280;51139;45.626;6.850;2023-02-18T08:20:07;82873.44;;;7.68;41.13
64711;BME280;51139;45.626;6.850;2023-02-18T08:22:33;82869.53;;;8.03;41.58
64711;BME280;51139;45.626;6.850;2023-02-18T08:24:58;82867.28;;;8.58;40.40
64711;BME280;51139;45.626;6.850;2023-02-18T08:27:24;82862.13;;;8.81;40.68
64711;BME280;51139;45.626;6.850;2023-02-18T08:29:49;82866.16;;;8.74;39.05
64711;BME280;51139;45.626;6.850;2023-02-18T08:32:15;82861.03;;;9.66;37.97
64711;BME280;51139;45.626;6.850;2023-02-18T08:34:40;82862.34;;;8.91;38.45
64711;BME280;51139;45.626;6.850;2023-02-18T08:37:05;82863.13;;;9.52;37.87
64711;BME280;51139;45.626;6.850;2023-02-18T08:39:35;82869.59;;;10.18;38.44
64711;BME280;51139;45.626;6.850;2023-02-18T08:42:00;82865.50;;;9.86;35.74
64711;BME280;51139;45.626;6.850;2023-02-18T08:44:26;82875.28;;;10.69;35.87
64711;BME280;51139;45.626;6.850;2023-02-18T08:46:52;82871.19;;;10.84;35.50
64711;BME280;51139;45.626;6.850;2023-02-18T08:49:17;82869.22;;;10.92;34.88
64711;BME280;51139;45.626;6.850;2023-02-18T08:51:46;82874.72;;;10.16;36.74
64711;BME280;51139;45.626;6.850;2023-02-18T08:54:11;82879.13;;;10.29;36.00
64711;BME280;51139;45.626;6.850;2023-02-18T08:56:37;82866.19;;;11.11;38.37
64711;BME280;51139;45.626;6.850;2023-02-18T08:59:04;82867.84;;;10.36;36.53
64711;BME280;51139;45.626;6.850;2023-02-18T09:01:30;82865.81;;;11.22;35.72
64711;BME280;51139;45.626;6.850;2023-02-18T09:03:56;82871.38;;;10.78;38.01
64711;BME280;51139;45.626;6.850;2023-02-18T09:06:21;82870.84;;;10.87;36.88
64711;BME280;51139;45.626;6.850;2023-02-18T09:08:47;82879.97;;;11.74;35.79
64711;BME280;51139;45.626;6.850;2023-02-18T09:11:12;82873.47;;;11.59;36.40
64711;BME280;51139;45.626;6.850;2023-02-18T09:13:38;82873.56;;;11.77;37.70
64711;BME280;51139;45.626;6.850;2023-02-18T09:16:07;82872.88;;;12.17;33.77
64711;BME280;51139;45.626;6.850;2023-02-18T09:18:33;82874.22;;;12.26;33.58
64711;BME280;51139;45.626;6.850;2023-02-18T09:21:04;82879.44;;;11.67;33.88
64711;BME280;51139;45.626;6.850;2023-02-18T09:23:31;82874.47;;;12.46;33.19
64711;BME280;51139;45.626;6.850;2023-02-18T09:25:57;82876.94;;;11.77;35.61
64711;BME280;51139;45.626;6.850;2023-02-18T09:28:23;82877.78;;;12.54;35.40
64711;BME280;51139;45.626;6.850;2023-02-18T09:30:49;82881.59;;;13.11;33.12
64711;BME280;51139;45.626;6.850;2023-02-18T09:33:15;82885.00;;;12.03;34.34
64711;BME280;51139;45.626;6.850;2023-02-18T09:35:42;82889.84;;;13.94;32.58
64711;BME280;51139;45.626;6.850;2023-02-18T09:38:09;82889.63;;;13.82;32.82
64711;BME280;51139;45.626;6.850;2023-02-18T09:40:37;82887.59;;;12.69;34.33
64711;BME280;51139;45.626;6.850;2023-02-18T09:43:04;82885.66;;;13.12;33.51
64711;BME280;51139;45.626;6.850;2023-02-18T09:45:31;82890.94;;;12.44;35.92
64711;BME280;51139;45.626;6.850;2023-02-18T09:47:57;82892.28;;;12.28;35.15
64711;BME280;51139;45.626;6.850;2023-02-18T09:50:29;82894.72;;;13.09;32.95
64711;BME280;51139;45.626;6.850;2023-02-18T09:52:58;82890.03;;;13.00;33.72
64711;BME280;51139;45.626;6.850;2023-02-18T09:55:28;82900.56;;;12.90;33.99
64711;BME280;51139;45.626;6.850;2023-02-18T09:58:02;82899.56;;;11.30;36.75
64711;BME280;51139;45.626;6.850;2023-02-18T10:00:40;82890.41;;;11.15;37.27
64711;BME280;51139;45.626;6.850;2023-02-18T10:03:16;82895.34;;;11.11;36.18
64711;BME280;51139;45.626;6.850;2023-02-18T10:06:09;82892.13;;;11.36;35.50
64711;BME280;51139;45.626;6.850;2023-02-18T10:08:38;82891.97;;;11.82;35.59
64711;BME280;51139;45.626;6.850;2023-02-18T10:11:15;82892.25;;;11.53;34.93
64711;BME280;51139;45.626;6.850;2023-02-18T10:13:42;82890.94;;;11.06;36.68
64711;BME280;51139;45.626;6.850;2023-02-18T10:16:08;82893.25;;;11.09;37.71
64711;BME280;51139;45.626;6.850;2023-02-18T10:18:45;82897.16;;;10.77;37.99
64711;BME280;51139;45.626;6.850;2023-02-18T10:21:21;82896.09;;;10.88;35.87
64711;BME280;51139;45.626;6.850;2023-02-18T10:26:42;82900.72;;;10.57;36.87
64711;BME280;51139;45.626;6.850;2023-02-18T10:29:17;82897.28;;;9.94;38.58
64711;BME280;51139;45.626;6.850;2023-02-18T10:31:45;82900.53;;;10.78;41.22
64711;BME280;51139;45.626;6.850;2023-02-18T10:34:38;82901.59;;;10.67;42.12
64711;BME280;51139;45.626;6.850;2023-02-18T10:37:51;82902.47;;;10.70;37.22
64711;BME280;51139;45.626;6.850;2023-02-18T10:45:41;82921.50;;;10.21;39.08
64711;BME280;51139;45.626;6.850;2023-02-18T10:50:47;82918.66;;;9.15;41.37
64711;BME280;51139;45.626;6.850;2023-02-18T10:53:18;82910.31;;;10.00;40.76
64711;BME280;51139;45.626;6.850;2023-02-18T10:55:46;82904.06;;;9.22;41.26
64711;BME280;51139;45.626;6.850;2023-02-18T10:58:33;82906.06;;;9.29;39.12
64711;BME280;51139;45.626;6.850;2023-02-18T11:01:04;82902.81;;;9.67;40.68
64711;BME280;51139;45.626;6.850;2023-02-18T11:06:15;82912.69;;;10.27;42.34
64711;BME280;51139;45.626;6.850;2023-02-18T11:08:42;82909.59;;;9.91;39.66
64711;BME280;51139;45.626;6.850;2023-02-18T11:11:15;82900.91;;;9.68;39.01
64711;BME280;51139;45.626;6.850;2023-02-18T11:13:41;82901.75;;;10.38;40.74
64711;BME280;51139;45.626;6.850;2023-02-18T11:16:08;82908.44;;;10.31;40.46
64711;BME280;51139;45.626;6.850;2023-02-18T11:18:38;82897.41;;;9.88;39.67
64711;BME280;51139;45.626;6.850;2023-02-18T11:21:31;82901.56;;;10.36;39.32
64711;BME280;51139;45.626;6.850;2023-02-18T11:24:09;82901.78;;;10.54;39.82
64711;BME280;51139;45.626;6.850;2023-02-18T11:26:35;82901.22;;;10.40;38.04
64711;BME280;51139;45.626;6.850;2023-02-18T11:29:06;82888.28;;;10.05;39.65
64711;BME280;51139;45.626;6.850;2023-02-18T11:31:45;82884.06;;;9.42;39.88
64711;BME280;51139;45.626;6.850;2023-02-18T11:34:17;82884.09;;;9.49;41.71
64711;BME280;51139;45.626;6.850;2023-02-18T11:36:45;82889.00;;;10.05;39.67
64711;BME280;51139;45.626;6.850;2023-02-18T11:39:25;82883.47;;;9.28;41.91
64711;BME280;51139;45.626;6.850;2023-02-18T11:41:57;82882.13;;;9.42;38.31
64711;BME280;51139;45.626;6.850;2023-02-18T11:47:01;82868.56;;;10.53;40.05
64711;BME280;51139;45.626;6.850;2023-02-18T11:49:27;82864.47;;;10.83;38.44
64711;BME280;51139;45.626;6.850;2023-02-18T11:51:54;82863.88;;;11.15;37.94
64711;BME280;51139;45.626;6.850;2023-02-18T11:54:29;82855.81;;;10.90;37.91
64711;BME280;51139;45.626;6.850;2023-02-18T11:57:01;82858.50;;;10.59;37.86
64711;BME280;51139;45.626;6.850;2023-02-18T11:59:31;82852.13;;;10.07;36.49
64711;BME280;51139;45.626;6.850;2023-02-18T12:04:45;82845.25;;;10.59;39.79
64711;BME280;51139;45.626;6.850;2023-02-18T12:07:14;82845.25;;;10.67;39.61
64711;BME280;51139;45.626;6.850;2023-02-18T12:09:47;82845.44;;;10.69;38.19
64711;BME280;51139;45.626;6.850;2023-02-18T12:12:18;82839.41;;;10.37;42.09
64711;BME280;51139;45.626;6.850;2023-02-18T12:14:48;82835.03;;;10.40;38.68
64711;BME280;51139;45.626;6.850;2023-02-18T12:17:41;82848.13;;;9.46;38.35
64711;BME280;51139;45.626;6.850;2023-02-18T12:37:00;82831.47;;;10.21;40.23
64711;BME280;51139;45.626;6.850;2023-02-18T12:40:08;82835.19;;;10.18;39.54
64711;BME280;51139;45.626;6.850;2023-02-18T12:43:05;82835.53;;;10.15;39.97
64711;BME280;51139;45.626;6.850;2023-02-18T12:45:44;82835.19;;;10.49;40.25
64711;BME280;51139;45.626;6.850;2023-02-18T12:51:21;82834.28;;;10.31;37.87
64711;BME280;51139;45.626;6.850;2023-02-18T12:59:32;82841.72;;;10.64;39.91
64711;BME280;51139;45.626;6.850;2023-02-18T13:07:26;82824.22;;;10.84;38.41
64711;BME280;51139;45.626;6.850;2023-02-18T13:12:45;82826.84;;;10.84;37.97
64711;BME280;51139;45.626;6.850;2023-02-18T13:15:18;82822.03;;;10.98;35.75
64711;BME280;51139;45.626;6.850;2023-02-18T13:17:46;82825.13;;;10.56;39.96
64711;BME280;51139;45.626;6.850;2023-02-18T13:20:38;82826.53;;;10.64;40.62
64711;BME280;51139;45.626;6.850;2023-02-18T13:23:05;82824.94;;;10.15;40.22
64711;BME280;51139;45.626;6.850;2023-02-18T13:25:35;82820.72;;;10.19;39.00
64711;BME280;51139;45.626;6.850;2023-02-18T13:28:25;82822.44;;;9.10;36.03
64711;BME280;51139;45.626;6.850;2023-02-18T13:33:43;82813.13;;;10.39;40.99
64711;BME280;51139;45.626;6.850;2023-02-18T13:39:13;82810.81;;;9.89;38.75
64711;BME280;51139;45.626;6.850;2023-02-18T13:41:48;82805.38;;;9.19;37.20
64711;BME280;51139;45.626;6.850;2023-02-18T13:46:51;82801.06;;;9.53;41.77
64711;BME280;51139;45.626;6.850;2023-02-18T13:49:31;82802.72;;;9.87;41.71
64711;BME280;51139;45.626;6.850;2023-02-18T13:51:58;82794.78;;;10.41;39.25
64711;BME280;51139;45.626;6.850;2023-02-18T13:57:21;82796.19;;;10.27;39.41
64711;BME280;51139;45.626;6.850;2023-02-18T14:00:04;82783.81;;;10.29;39.18
64711;BME280;51139;45.626;6.850;2023-02-18T14:02:35;82786.13;;;10.41;38.96
64711;BME280;51139;45.626;6.850;2023-02-18T14:10:01;82787.69;;;10.05;39.11
64711;BME280;51139;45.626;6.850;2023-02-18T14:17:44;82785.22;;;10.54;37.87
64711;BME280;51139;45.626;6.850;2023-02-18T14:27:40;82785.19;;;10.69;38.33
64711;BME280;51139;45.626;6.850;2023-02-18T14:30:18;82788.22;;;10.50;37.40
64711;BME280;51139;45.626;6.850;2023-02-18T14:32:50;82784.84;;;10.57;40.31
64711;BME280;51139;45.626;6.850;2023-02-18T14:35:26;82797.88;;;10.78;34.34
64711;BME280;51139;45.626;6.850;2023-02-18T14:40:36;82780.13;;;10.01;35.03
64711;BME280;51139;45.626;6.850;2023-02-18T14:43:27;82787.31;;;10.71;36.86
64711;BME280;51139;45.626;6.850;2023-02-18T14:51:35;82777.97;;;10.54;39.21
64711;BME280;51139;45.626;6.850;2023-02-18T14:54:05;82778.31;;;10.66;37.38
64711;BME280;51139;45.626;6.850;2023-02-18T14:59:15;82776.84;;;10.80;37.47
64711;BME280;51139;45.626;6.850;2023-02-18T15:01:41;82774.25;;;10.73;39.15
64711;BME280;51139;45.626;6.850;2023-02-18T15:04:13;82773.91;;;10.61;38.24
64711;BME280;51139;45.626;6.850;2023-02-18T15:06:38;82768.94;;;10.65;38.31
64711;BME280;51139;45.626;6.850;2023-02-18T15:09:21;82769.69;;;9.80;43.49
64711;BME280;51139;45.626;6.850;2023-02-18T15:11:49;82767.41;;;9.84;41.44
64711;BME280;51139;45.626;6.850;2023-02-18T15:14:21;82769.88;;;10.05;40.94
64711;BME280;51139;45.626;6.850;2023-02-18T15:16:49;82772.53;;;10.05;42.42
64711;BME280;51139;45.626;6.850;2023-02-18T15:19:20;82779.06;;;9.97;40.65
64711;BME280;51139;45.626;6.850;2023-02-18T15:21:48;82770.22;;;10.02;41.59